Time;durP1;ratioP1;P1;durP2;ratioP2;P2;SDS_P1;SDS_P2;PMS_P1;PMS_P2;Temp;Humidity;BMP_temperature;BMP_pressure;BME280_temperature;BME280_humidity;BME280_pressure;Samples;Min_cycle;Max_cycle;Signal;HPM_P1;HPM_P2
2021/09/05 00:02:12;;;;;;;;;;;;;;;17.25;75.13;100184.38;5019304;28;20004;-63
2021/09/05 00:04:56;;;;;;;;;;;;;;;17.25;75.09;100180.91;5018873;28;20016;-64
2021/09/05 00:07:40;;;;;;;;;;;;;;;17.25;75.08;100183.53;5034269;28;19968;-64
2021/09/05 00:10:30;;;;;;;;;;;;;;;17.24;75.11;100182.66;5034171;28;19944;-64
2021/09/05 00:13:14;;;;;;;;;;;;;;;17.25;74.93;100188.78;5019014;28;19928;-63
2021/09/05 00:15:58;;;;;;;;;;;;;;;17.25;75.12;100188.78;5033683;28;19928;-63
2021/09/05 00:18:42;;;;;;;;;;;;;;;17.24;75.00;100182.66;5033849;28;20339;-64
2021/09/05 00:21:26;;;;;;;;;;;;;;;17.22;74.93;100180.94;5033616;28;19971;-63
2021/09/05 00:24:10;;;;;;;;;;;;;;;17.23;75.02;100172.19;5018852;28;19967;-63
2021/09/05 00:26:54;;;;;;;;;;;;;;;17.21;75.09;100166.97;5034131;28;19990;-63
2021/09/05 00:29:41;;;;;;;;;;;;;;;17.20;74.98;100175.72;5034292;28;19967;-63
2021/09/05 00:32:28;;;;;;;;;;;;;;;17.20;75.09;100170.50;5033105;28;19948;-64
2021/09/05 00:35:12;;;;;;;;;;;;;;;17.20;74.95;100170.50;5033758;28;19943;-63
2021/09/05 00:38:02;;;;;;;;;;;;;;;17.17;74.93;100170.50;5033921;28;19986;-63
2021/09/05 00:40:46;;;;;;;;;;;;;;;17.19;75.01;100163.50;5033182;28;20411;-63
2021/09/05 00:43:33;;;;;;;;;;;;;;;17.17;74.97;100165.28;5034244;28;19943;-63
2021/09/05 00:46:17;;;;;;;;;;;;;;;17.15;74.98;100165.28;5018741;28;19975;-64
2021/09/05 00:49:01;;;;;;;;;;;;;;;17.16;75.05;100163.53;5033710;28;19982;-64
2021/09/05 00:51:49;;;;;;;;;;;;;;;17.14;74.99;100162.69;5033707;28;19948;-63
2021/09/05 00:54:37;;;;;;;;;;;;;;;17.14;75.06;100160.06;5032605;28;19928;-63
2021/09/05 00:57:22;;;;;;;;;;;;;;;17.15;75.11;100170.50;5019017;28;19986;-63
2021/09/05 01:00:08;;;;;;;;;;;;;;;17.12;75.06;100162.69;5018871;28;19932;-64
2021/09/05 01:02:52;;;;;;;;;;;;;;;17.13;75.08;100163.56;5018237;28;19928;-64
2021/09/05 01:05:36;;;;;;;;;;;;;;;17.12;75.22;100153.97;5033643;28;19932;-64
2021/09/05 01:08:20;;;;;;;;;;;;;;;17.12;75.18;100161.81;5034353;28;19927;-64
2021/09/05 01:11:03;;;;;;;;;;;;;;;17.11;75.05;100165.31;5037115;28;19964;-65
2021/09/05 01:13:47;;;;;;;;;;;;;;;17.11;74.93;100160.09;5037466;28;19928;-64
2021/09/05 01:16:36;;;;;;;;;;;;;;;17.09;75.07;100156.59;5022517;28;20442;-65
2021/09/05 01:19:22;;;;;;;;;;;;;;;17.09;75.14;100156.59;5036376;28;20024;-64
2021/09/05 01:22:06;;;;;;;;;;;;;;;17.06;75.08;100152.28;5022070;28;19982;-65
2021/09/05 01:24:50;;;;;;;;;;;;;;;17.05;75.21;100163.63;5037332;28;19927;-64
2021/09/05 01:27:34;;;;;;;;;;;;;;;17.05;75.17;100158.38;5037244;28;19928;-64
2021/09/05 01:30:18;;;;;;;;;;;;;;;17.03;75.02;100165.38;5037147;28;19975;-63
2021/09/05 01:33:02;;;;;;;;;;;;;;;17.01;75.04;100159.28;5037023;28;19927;-64
2021/09/05 01:35:46;;;;;;;;;;;;;;;16.98;75.09;100162.81;5036907;28;19932;-63
2021/09/05 01:38:31;;;;;;;;;;;;;;;16.98;74.99;100161.94;5021877;28;19928;-63
2021/09/05 01:41:18;;;;;;;;;;;;;;;16.96;75.06;100167.19;5036874;28;20024;-63
2021/09/05 01:44:04;;;;;;;;;;;;;;;16.94;74.96;100168.91;5036788;28;19968;-63
2021/09/05 01:46:48;;;;;;;;;;;;;;;16.92;75.04;100168.06;5037206;28;20387;-65
2021/09/05 01:49:32;;;;;;;;;;;;;;;16.92;75.01;100169.81;5021652;28;20005;-64
2021/09/05 01:52:16;;;;;;;;;;;;;;;16.91;75.06;100171.56;5036702;28;19980;-64
2021/09/05 01:54:59;;;;;;;;;;;;;;;16.89;74.86;100170.72;5036005;28;19928;-64
2021/09/05 01:57:43;;;;;;;;;;;;;;;16.89;75.10;100178.56;5036153;28;19943;-64
2021/09/05 02:00:27;;;;;;;;;;;;;;;16.87;74.77;100178.56;5036700;28;19970;-64
2021/09/05 02:03:11;;;;;;;;;;;;;;;16.86;74.83;100176.81;5021170;28;19986;-65
2021/09/05 02:05:55;;;;;;;;;;;;;;;16.87;74.84;100182.94;5035630;28;19976;-65
2021/09/05 02:08:39;;;;;;;;;;;;;;;16.84;74.80;100178.59;5036546;28;19927;-65
2021/09/05 02:11:24;;;;;;;;;;;;;;;16.85;74.84;100184.69;5036740;28;19977;-65
2021/09/05 02:14:08;;;;;;;;;;;;;;;16.85;74.84;100190.78;5021718;28;19928;-65
2021/09/05 02:16:52;;;;;;;;;;;;;;;16.84;75.01;100188.19;5021424;28;19928;-64
2021/09/05 02:19:36;;;;;;;;;;;;;;;16.83;74.98;100187.31;5034855;28;19932;-65
2021/09/05 02:22:19;;;;;;;;;;;;;;;16.82;74.92;100188.19;5021126;28;19928;-64
2021/09/05 02:25:04;;;;;;;;;;;;;;;16.81;74.82;100189.09;5036469;28;19928;-64
2021/09/05 02:27:51;;;;;;;;;;;;;;;16.80;74.94;100191.72;5036116;28;19987;-65
2021/09/05 02:30:35;;;;;;;;;;;;;;;16.80;75.00;100186.47;5035267;28;19963;-65
2021/09/05 02:33:21;;;;;;;;;;;;;;;16.79;75.08;100185.63;5021215;28;20383;-64
2021/09/05 02:36:08;;;;;;;;;;;;;;;16.78;75.15;100188.22;5036107;28;19955;-64
2021/09/05 02:38:53;;;;;;;;;;;;;;;16.76;74.85;100188.25;5034666;28;19928;-63
2021/09/05 02:41:39;;;;;;;;;;;;;;;16.77;74.93;100184.75;5020768;28;19928;-63
2021/09/05 02:44:23;;;;;;;;;;;;;;;16.76;74.93;100177.78;5036284;28;20037;-63
2021/09/05 02:47:08;;;;;;;;;;;;;;;16.75;74.82;100171.66;5035783;28;19974;-63
2021/09/05 02:49:51;;;;;;;;;;;;;;;16.74;74.82;100180.41;5035083;28;19928;-63
2021/09/05 02:52:35;;;;;;;;;;;;;;;16.74;74.88;100177.78;5035739;28;20027;-63
2021/09/05 02:55:22;;;;;;;;;;;;;;;16.74;74.64;100172.56;5035535;28;20307;-64
2021/09/05 02:58:06;;;;;;;;;;;;;;;16.74;74.70;100166.47;5035327;28;19932;-65
2021/09/05 03:00:50;;;;;;;;;;;;;;;16.74;74.76;100172.56;5020851;28;19928;-63
2021/09/05 03:03:37;;;;;;;;;;;;;;;16.73;74.98;100172.56;5035038;28;20010;-63
2021/09/05 03:06:21;;;;;;;;;;;;;;;16.72;74.93;100176.06;5035315;28;19944;-64
2021/09/05 03:09:05;;;;;;;;;;;;;;;16.72;74.77;100168.22;5035533;28;19928;-64
2021/09/05 03:11:49;;;;;;;;;;;;;;;16.71;74.77;100174.31;5034861;28;19955;-65
2021/09/05 03:14:33;;;;;;;;;;;;;;;16.71;74.87;100179.56;5035497;28;19974;-63
2021/09/05 03:17:20;;;;;;;;;;;;;;;16.70;74.94;100176.09;5035249;28;20287;-64
2021/09/05 03:20:05;;;;;;;;;;;;;;;16.68;74.97;100170.00;5034972;28;19928;-64
2021/09/05 03:22:49;;;;;;;;;;;;;;;16.69;74.89;100169.13;5035134;28;19928;-65
2021/09/05 03:25:33;;;;;;;;;;;;;;;16.69;74.80;100176.09;5035081;28;19928;-63
2021/09/05 03:28:17;;;;;;;;;;;;;;;16.67;74.76;100176.09;5034735;28;20425;-64
2021/09/05 03:31:00;;;;;;;;;;;;;;;16.67;74.92;100177.84;5019822;28;19938;-63
2021/09/05 03:33:44;;;;;;;;;;;;;;;16.66;74.85;100179.59;5034952;28;20451;-62
2021/09/05 03:36:28;;;;;;;;;;;;;;;16.66;74.65;100179.59;5034831;28;20012;-63
2021/09/05 03:39:12;;;;;;;;;;;;;;;16.66;74.83;100181.38;5034779;28;20391;-65
2021/09/05 03:41:56;;;;;;;;;;;;;;;16.65;74.58;100177.00;5034427;28;19932;-65
2021/09/05 03:44:40;;;;;;;;;;;;;;;16.64;74.84;100186.59;5034856;28;20491;-64
2021/09/05 03:47:26;;;;;;;;;;;;;;;16.63;74.90;100189.22;5034756;28;19928;-64
2021/09/05 03:50:10;;;;;;;;;;;;;;;16.63;74.78;100187.47;5034498;28;19928;-63
2021/09/05 03:52:57;;;;;;;;;;;;;;;16.61;74.83;100189.22;5034437;28;20407;-64
2021/09/05 03:55:41;;;;;;;;;;;;;;;16.62;74.82;100184.88;5019551;28;20023;-64
2021/09/05 03:58:25;;;;;;;;;;;;;;;16.59;74.90;100189.25;5033224;28;19967;-63
2021/09/05 04:01:09;;;;;;;;;;;;;;;16.58;74.86;100186.66;5033762;28;19929;-63
2021/09/05 04:03:53;;;;;;;;;;;;;;;16.59;74.80;100193.59;5033509;28;19928;-64
2021/09/05 04:06:37;;;;;;;;;;;;;;;16.57;74.91;100196.22;5034296;28;20015;-64
2021/09/05 04:12:24;;;;;;;;;;;;;;;16.56;74.85;100194.47;5034234;28;19927;-65
2021/09/05 04:15:11;;;;;;;;;;;;;;;16.55;74.87;100194.50;5033856;28;19928;-64
2021/09/05 04:17:56;;;;;;;;;;;;;;;16.55;74.81;100195.38;5018958;28;19928;-64
2021/09/05 04:20:39;;;;;;;;;;;;;;;16.54;74.66;100198.00;5034161;28;20394;-65
2021/09/05 04:23:24;;;;;;;;;;;;;;;16.52;74.84;100192.75;5034111;28;19927;-65
2021/09/05 04:26:08;;;;;;;;;;;;;;;16.53;74.62;100196.25;5019077;28;19928;-64
2021/09/05 04:28:52;;;;;;;;;;;;;;;16.52;74.80;100195.38;5019679;28;19928;-64
2021/09/05 04:31:36;;;;;;;;;;;;;;;16.51;74.83;100196.25;5034122;28;19979;-64
2021/09/05 04:34:23;;;;;;;;;;;;;;;16.52;74.90;100200.59;5033500;28;20016;-64
2021/09/05 04:37:07;;;;;;;;;;;;;;;16.51;74.81;100198.88;5033846;28;19928;-64
2021/09/05 04:39:54;;;;;;;;;;;;;;;16.52;74.55;100199.75;5018680;28;19952;-64
2021/09/05 04:42:41;;;;;;;;;;;;;;;16.50;74.72;100197.16;5033208;28;19928;-64
2021/09/05 04:45:26;;;;;;;;;;;;;;;16.51;74.64;100203.25;5026825;28;19970;-63
2021/09/05 04:48:13;;;;;;;;;;;;;;;16.49;74.87;100203.25;5019341;28;20059;-64
2021/09/05 04:50:57;;;;;;;;;;;;;;;16.49;74.81;100205.88;5033315;28;20288;-63
2021/09/05 04:53:41;;;;;;;;;;;;;;;16.49;74.81;100205.88;5033909;28;19944;-63
2021/09/05 04:56:28;;;;;;;;;;;;;;;16.49;74.63;100212.84;5034146;28;19928;-63
2021/09/05 04:59:12;;;;;;;;;;;;;;;16.49;74.82;100213.72;5033248;28;20442;-64
2021/09/05 05:01:56;;;;;;;;;;;;;;;16.49;74.88;100218.06;5033850;28;20403;-63
2021/09/05 05:04:40;;;;;;;;;;;;;;;16.48;74.89;100211.09;5033540;28;20091;-64
2021/09/05 05:07:24;;;;;;;;;;;;;;;16.46;74.75;100218.97;5033717;28;19928;-64
2021/09/05 05:10:08;;;;;;;;;;;;;;;16.46;74.70;100212.84;5033904;28;19928;-64
2021/09/05 05:12:52;;;;;;;;;;;;;;;16.45;74.90;100222.47;5033310;28;19928;-63
2021/09/05 05:15:36;;;;;;;;;;;;;;;16.46;74.67;100223.31;5033092;28;19931;-64
2021/09/05 05:18:20;;;;;;;;;;;;;;;16.45;74.67;100222.47;5033630;28;20324;-63
2021/09/05 05:21:04;;;;;;;;;;;;;;;16.44;74.88;100231.19;5033740;28;19947;-63
2021/09/05 05:23:48;;;;;;;;;;;;;;;16.43;74.82;100224.22;5033737;28;19928;-65
2021/09/05 05:26:35;;;;;;;;;;;;;;;16.43;74.77;100234.69;5018875;28;19928;-64
2021/09/05 05:29:19;;;;;;;;;;;;;;;16.41;74.81;100239.94;5018574;28;20284;-64
2021/09/05 05:32:03;;;;;;;;;;;;;;;16.41;74.78;100239.94;5033101;28;19975;-65
2021/09/05 05:34:46;;;;;;;;;;;;;;;16.41;74.79;100236.44;5032001;28;19947;-65
2021/09/05 05:37:30;;;;;;;;;;;;;;;16.39;74.72;100244.28;5033365;28;19927;-65
2021/09/05 05:40:25;;;;;;;;;;;;;;;16.41;74.75;100241.66;5033410;28;20044;-65
2021/09/05 05:43:09;;;;;;;;;;;;;;;16.40;74.87;100229.47;5032231;28;20420;-65
2021/09/05 05:45:53;;;;;;;;;;;;;;;16.40;74.91;100232.97;5033455;28;19928;-65
2021/09/05 05:48:37;;;;;;;;;;;;;;;16.40;74.81;100232.97;5032806;28;19928;-64
2021/09/05 05:51:24;;;;;;;;;;;;;;;16.41;74.69;100228.59;5032267;28;19928;-65
2021/09/05 05:54:08;;;;;;;;;;;;;;;16.40;74.93;100234.69;5019152;28;20292;-63
2021/09/05 05:56:52;;;;;;;;;;;;;;;16.40;74.72;100235.56;5036110;28;19971;-65
2021/09/05 05:59:36;;;;;;;;;;;;;;;16.41;74.79;100242.53;5036441;28;19995;-65
2021/09/05 06:02:20;;;;;;;;;;;;;;;16.42;74.75;100241.66;5036070;28;19944;-63
2021/09/05 06:05:07;;;;;;;;;;;;;;;16.42;74.85;100241.66;5036706;28;19979;-63
2021/09/05 06:07:56;;;;;;;;;;;;;;;16.43;74.77;100246.00;5021949;28;19928;-64
2021/09/05 06:10:40;;;;;;;;;;;;;;;16.43;74.91;100245.13;5035797;28;19974;-63
2021/09/05 06:13:27;;;;;;;;;;;;;;;16.43;75.00;100239.91;5036478;28;19927;-64
2021/09/05 06:16:16;;;;;;;;;;;;;;;16.42;74.95;100249.50;5021715;28;20442;-64
2021/09/05 06:19:00;;;;;;;;;;;;;;;16.43;74.81;100243.38;5021011;28;19928;-63
2021/09/05 06:21:44;;;;;;;;;;;;;;;16.44;74.78;100244.25;5036056;28;19975;-63
2021/09/05 06:24:28;;;;;;;;;;;;;;;16.44;74.95;100247.72;5036342;28;20019;-63
2021/09/05 06:27:12;;;;;;;;;;;;;;;16.43;74.77;100239.91;5036257;28;19928;-66
2021/09/05 06:30:00;;;;;;;;;;;;;;;16.46;74.85;100245.13;5035956;28;20011;-65
2021/09/05 06:32:49;;;;;;;;;;;;;;;16.47;75.03;100246.88;5021177;28;20028;-65
2021/09/05 06:35:36;;;;;;;;;;;;;;;16.47;74.95;100262.56;5035612;28;19974;-65
2021/09/05 06:38:20;;;;;;;;;;;;;;;16.48;74.97;100260.81;5036115;28;19967;-63
2021/09/05 06:41:04;;;;;;;;;;;;;;;16.49;75.10;100260.81;5036360;28;19975;-64
2021/09/05 06:43:48;;;;;;;;;;;;;;;16.50;74.92;100256.44;5035877;28;20327;-63
2021/09/05 06:46:32;;;;;;;;;;;;;;;16.50;75.14;100261.66;5035917;28;20022;-64
2021/09/05 06:49:16;;;;;;;;;;;;;;;16.51;75.19;100268.66;5035779;28;20339;-63
2021/09/05 06:52:00;;;;;;;;;;;;;;;16.53;75.17;100259.03;5035431;28;19928;-63
2021/09/05 06:54:43;;;;;;;;;;;;;;;16.53;75.15;100261.66;5035261;28;19971;-63
2021/09/05 06:57:30;;;;;;;;;;;;;;;16.54;75.18;100264.25;5020304;28;20001;-64
2021/09/05 07:00:14;;;;;;;;;;;;;;;16.56;75.16;100272.97;5035594;28;19928;-65
2021/09/05 07:02:58;;;;;;;;;;;;;;;16.57;75.32;100268.63;5035742;28;20016;-65
2021/09/05 07:05:47;;;;;;;;;;;;;;;16.57;75.18;100274.72;5035365;28;19928;-64
2021/09/05 07:08:31;;;;;;;;;;;;;;;16.60;75.42;100281.66;5034797;28;19970;-63
2021/09/05 07:11:21;;;;;;;;;;;;;;;16.61;75.46;100286.03;5027284;28;19928;-63
2021/09/05 07:14:08;;;;;;;;;;;;;;;16.63;75.40;100289.50;5034432;28;19929;-64
2021/09/05 07:16:52;;;;;;;;;;;;;;;16.64;75.36;100288.63;5020403;28;20300;-64
2021/09/05 07:19:40;;;;;;;;;;;;;;;16.67;75.32;100295.59;5035213;28;20300;-64
2021/09/05 07:22:26;;;;;;;;;;;;;;;16.68;75.33;100295.59;5035257;28;19955;-64
2021/09/05 07:25:13;;;;;;;;;;;;;;;16.71;75.44;100297.31;5035340;28;20403;-64
2021/09/05 07:28:01;;;;;;;;;;;;;;;16.72;75.38;100293.81;5018965;28;21375;-65
2021/09/05 07:30:45;;;;;;;;;;;;;;;16.73;75.36;100295.56;5020229;28;19928;-64
2021/09/05 07:33:29;;;;;;;;;;;;;;;16.74;75.31;100295.53;5034763;28;20411;-63
2021/09/05 07:36:13;;;;;;;;;;;;;;;16.77;75.30;100301.66;5034524;28;20431;-64
2021/09/05 07:38:59;;;;;;;;;;;;;;;16.78;75.31;100299.03;5034754;28;19971;-64
2021/09/05 07:41:43;;;;;;;;;;;;;;;16.79;75.34;100303.41;5034625;28;19974;-64
2021/09/05 07:44:30;;;;;;;;;;;;;;;16.81;75.32;100292.91;5033869;28;19975;-64
2021/09/05 07:47:14;;;;;;;;;;;;;;;16.83;75.32;100306.84;5034497;28;20335;-64
2021/09/05 07:50:00;;;;;;;;;;;;;;;16.84;75.25;100305.97;5034780;28;20303;-64
2021/09/05 07:52:44;;;;;;;;;;;;;;;16.85;75.20;100310.34;5033572;28;19967;-64
2021/09/05 07:55:28;;;;;;;;;;;;;;;16.87;75.34;100316.44;5034457;28;19975;-64
2021/09/05 07:58:12;;;;;;;;;;;;;;;16.89;75.20;100317.31;5033382;28;19936;-65
2021/09/05 08:00:58;;;;;;;;;;;;;;;16.90;75.25;100319.00;5034756;28;20164;-64
2021/09/05 08:03:45;;;;;;;;;;;;;;;16.92;75.27;100313.78;5033623;28;20509;-64
2021/09/05 08:06:29;;;;;;;;;;;;;;;16.93;75.22;100315.53;5019472;28;19928;-64
2021/09/05 08:09:13;;;;;;;;;;;;;;;16.95;75.21;100319.03;5033984;28;19971;-64
2021/09/05 08:12:02;;;;;;;;;;;;;;;16.97;75.25;100319.91;5034105;28;20435;-64
2021/09/05 08:14:48;;;;;;;;;;;;;;;16.98;75.23;100322.50;5019695;28;19971;-64
2021/09/05 08:17:32;;;;;;;;;;;;;;;16.99;74.91;100319.00;5033856;28;20391;-64
2021/09/05 08:20:16;;;;;;;;;;;;;;;17.02;75.28;100319.00;5034213;28;20352;-65
2021/09/05 08:23:00;;;;;;;;;;;;;;;17.04;74.95;100327.72;5034456;28;19928;-65
2021/09/05 08:25:44;;;;;;;;;;;;;;;17.07;75.26;100329.44;5034386;28;19928;-65
2021/09/05 08:28:31;;;;;;;;;;;;;;;17.10;75.21;100331.16;5033928;28;19975;-66
2021/09/05 08:31:23;;;;;;;;;;;;;;;17.13;75.07;100336.38;5034113;28;20284;-64
2021/09/05 08:34:10;;;;;;;;;;;;;;;17.14;75.29;100330.28;5032840;28;20413;-64
2021/09/05 08:37:00;;;;;;;;;;;;;;;17.15;75.30;100338.09;5034003;28;20394;-64
2021/09/05 08:39:43;;;;;;;;;;;;;;;17.16;75.00;100342.47;5033072;28;19966;-64
2021/09/05 08:42:30;;;;;;;;;;;;;;;17.18;75.11;100342.47;5033717;28;19928;-64
2021/09/05 08:45:14;;;;;;;;;;;;;;;17.20;75.08;100343.34;5033203;28;19928;-64
2021/09/05 08:47:59;;;;;;;;;;;;;;;17.22;75.27;100349.41;5018872;28;19975;-64
2021/09/05 08:50:45;;;;;;;;;;;;;;;17.26;75.02;100347.66;5034065;28;20331;-64
2021/09/05 08:53:29;;;;;;;;;;;;;;;17.27;74.94;100354.63;5034167;28;19967;-64
2021/09/05 08:56:13;;;;;;;;;;;;;;;17.29;75.03;100356.34;5033940;28;20406;-66
2021/09/05 08:58:57;;;;;;;;;;;;;;;17.31;75.00;100358.94;5033001;28;19929;-66
2021/09/05 09:01:50;;;;;;;;;;;;;;;17.32;74.96;100356.34;5032900;28;19928;-65
2021/09/05 09:04:36;;;;;;;;;;;;;;;17.35;74.82;100350.19;5018341;28;19967;-65
2021/09/05 09:07:20;;;;;;;;;;;;;;;17.38;74.91;100357.16;5018982;28;19944;-65
2021/09/05 09:10:06;;;;;;;;;;;;;;;17.40;74.73;100364.16;5033682;28;20347;-65
2021/09/05 09:12:51;;;;;;;;;;;;;;;17.42;74.84;100365.00;5018235;28;20434;-65
2021/09/05 09:15:40;;;;;;;;;;;;;;;17.45;75.05;100364.09;5033432;28;20303;-65
2021/09/05 09:18:28;;;;;;;;;;;;;;;17.47;74.75;100362.34;5018385;28;20499;-65
2021/09/05 09:21:14;;;;;;;;;;;;;;;17.50;75.03;100364.94;5019070;28;19932;-65
2021/09/05 09:24:07;;;;;;;;;;;;;;;17.53;74.74;100366.66;5018950;28;19928;-65
2021/09/05 09:26:58;;;;;;;;;;;;;;;17.54;74.88;100369.25;5033719;28;19929;-65
2021/09/05 09:29:42;;;;;;;;;;;;;;;17.58;74.62;100357.03;5020255;28;19975;-66
2021/09/05 09:32:26;;;;;;;;;;;;;;;17.60;74.78;100366.59;5037157;28;20010;-65
2021/09/05 09:35:13;;;;;;;;;;;;;;;17.64;74.61;100370.94;5037190;28;20002;-66
2021/09/05 09:38:04;;;;;;;;;;;;;;;17.66;74.67;100373.56;5037024;28;19979;-66
2021/09/05 09:40:49;;;;;;;;;;;;;;;17.69;74.71;100364.78;5036062;28;20400;-65
2021/09/05 09:43:33;;;;;;;;;;;;;;;17.71;74.68;100369.16;5022089;28;19959;-66
2021/09/05 09:46:20;;;;;;;;;;;;;;;17.73;74.73;100375.25;5036575;28;20367;-65
2021/09/05 09:49:08;;;;;;;;;;;;;;;17.77;74.64;100376.09;5022270;28;20415;-66
2021/09/05 09:51:57;;;;;;;;;;;;;;;17.79;74.74;100376.94;5035482;28;19960;-65
2021/09/05 09:54:45;;;;;;;;;;;;;;;17.81;74.51;100365.56;5022257;28;20010;-65
2021/09/05 09:57:29;;;;;;;;;;;;;;;17.83;74.68;100376.00;5035629;28;19928;-65
2021/09/05 10:00:16;;;;;;;;;;;;;;;17.85;74.65;100376.88;5036711;28;19967;-65
2021/09/05 10:03:00;;;;;;;;;;;;;;;17.89;74.70;100369.88;5036178;28;19944;-63
2021/09/05 10:05:50;;;;;;;;;;;;;;;17.91;74.53;100370.69;5036728;28;19928;-63
2021/09/05 10:08:40;;;;;;;;;;;;;;;17.94;74.57;100376.81;5035477;28;19927;-64
2021/09/05 10:11:25;;;;;;;;;;;;;;;17.96;74.67;100368.91;5035379;28;19971;-64
2021/09/05 10:14:08;;;;;;;;;;;;;;;17.99;74.58;100371.56;5036554;28;19992;-64
2021/09/05 10:16:56;;;;;;;;;;;;;;;18.00;74.59;100370.66;5036742;28;19929;-64
2021/09/05 10:19:40;;;;;;;;;;;;;;;18.03;74.54;100370.66;5020928;28;19948;-65
2021/09/05 10:22:27;;;;;;;;;;;;;;;18.05;74.67;100366.25;5036681;28;20024;-65
2021/09/05 10:25:11;;;;;;;;;;;;;;;18.06;74.61;100367.13;5021297;28;19928;-66
2021/09/05 10:28:00;;;;;;;;;;;;;;;18.08;74.74;100378.47;5021003;28;19927;-65
2021/09/05 10:30:57;;;;;;;;;;;;;;;18.09;74.59;100365.31;5021008;28;19951;-65
2021/09/05 10:33:44;;;;;;;;;;;;;;;18.11;74.63;100366.19;5021550;28;19967;-65
2021/09/05 10:36:40;;;;;;;;;;;;;;;18.13;74.61;100366.19;5021618;28;19928;-65
2021/09/05 10:39:27;;;;;;;;;;;;;;;18.16;74.60;100368.75;5035781;28;19928;-65
2021/09/05 10:42:22;;;;;;;;;;;;;;;18.19;74.59;100365.25;5034801;28;19928;-65
2021/09/05 10:45:08;;;;;;;;;;;;;;;18.20;74.67;100361.75;5021131;28;19967;-65
2021/09/05 10:47:51;;;;;;;;;;;;;;;18.22;74.35;100360.84;5020695;28;19979;-65
2021/09/05 10:50:37;;;;;;;;;;;;;;;18.24;74.56;100366.94;5035683;28;20012;-65
2021/09/05 10:53:25;;;;;;;;;;;;;;;18.25;74.73;100366.06;5020994;28;20019;-65
2021/09/05 10:56:14;;;;;;;;;;;;;;;18.28;74.72;100366.91;5020546;28;19967;-65
2021/09/05 10:58:59;;;;;;;;;;;;;;;18.29;74.51;100364.25;5035571;28;19928;-65
2021/09/05 11:01:46;;;;;;;;;;;;;;;18.30;74.44;100359.88;5035756;28;20472;-65
2021/09/05 11:04:43;;;;;;;;;;;;;;;18.32;74.60;100366.84;5035041;28;19971;-65
2021/09/05 11:07:33;;;;;;;;;;;;;;;18.35;74.54;100364.19;5020804;28;19970;-65
2021/09/05 11:10:37;;;;;;;;;;;;;;;18.37;74.76;100359.78;5020474;28;19975;-65
2021/09/05 11:13:48;;;;;;;;;;;;;;;18.39;74.82;100359.78;5035367;28;19991;-65
2021/09/05 11:16:37;;;;;;;;;;;;;;;18.41;74.71;100361.50;5035294;28;19928;-65
2021/09/05 11:19:21;;;;;;;;;;;;;;;18.44;74.85;100359.72;5020152;28;19928;-65
2021/09/05 11:22:06;;;;;;;;;;;;;;;18.45;74.86;100358.84;5034981;28;19971;-65
2021/09/05 11:25:09;;;;;;;;;;;;;;;18.46;74.84;100361.44;5020308;28;19928;-65
2021/09/05 11:28:04;;;;;;;;;;;;;;;18.48;74.79;100362.28;5034825;28;20435;-65
2021/09/05 11:30:49;;;;;;;;;;;;;;;18.51;74.75;100364.03;5019749;28;19932;-65
2021/09/05 11:33:33;;;;;;;;;;;;;;;18.52;74.82;100361.38;5019832;28;19928;-65
2021/09/05 11:36:17;;;;;;;;;;;;;;;18.54;74.85;100363.97;5035306;28;20442;-65
2021/09/05 11:39:04;;;;;;;;;;;;;;;18.54;75.17;100363.97;5034948;28;19951;-65
2021/09/05 11:41:55;;;;;;;;;;;;;;;18.55;74.69;100365.72;5020044;28;20464;-64
2021/09/05 11:44:39;;;;;;;;;;;;;;;18.56;74.68;100365.72;5020121;28;19943;-64
2021/09/05 11:47:25;;;;;;;;;;;;;;;18.56;74.81;100368.31;5019535;28;19990;-64
2021/09/05 11:50:10;;;;;;;;;;;;;;;18.58;74.78;100364.81;5034071;28;19943;-63
2021/09/05 11:52:54;;;;;;;;;;;;;;;18.59;74.72;100366.56;5034376;28;19966;-64
2021/09/05 11:55:38;;;;;;;;;;;;;;;18.59;74.75;100370.03;5019542;28;20322;-63
2021/09/05 11:58:27;;;;;;;;;;;;;;;18.61;74.79;100367.41;5034408;28;19967;-64
2021/09/05 12:01:13;;;;;;;;;;;;;;;18.63;74.81;100365.63;5019793;28;19991;-64
2021/09/05 12:04:00;;;;;;;;;;;;;;;18.64;74.97;100360.38;5018993;28;20303;-64
2021/09/05 12:06:47;;;;;;;;;;;;;;;18.66;74.85;100357.72;5034729;28;19935;-63
2021/09/05 12:09:35;;;;;;;;;;;;;;;18.69;74.88;100349.81;5019264;28;19967;-65
2021/09/05 12:12:24;;;;;;;;;;;;;;;18.69;75.18;100361.16;5034269;28;19927;-63
2021/09/05 12:15:13;;;;;;;;;;;;;;;18.73;74.82;100354.13;5034462;28;19928;-63
2021/09/05 12:17:57;;;;;;;;;;;;;;;18.74;74.92;100350.63;5034211;28;19932;-65
2021/09/05 12:20:44;;;;;;;;;;;;;;;18.74;74.92;100348.00;5034189;28;19975;-63
2021/09/05 12:23:30;;;;;;;;;;;;;;;18.75;75.10;100357.59;5034330;28;19928;-63
2021/09/05 12:26:17;;;;;;;;;;;;;;;18.76;74.88;100353.22;5034058;28;19971;-63
2021/09/05 12:29:04;;;;;;;;;;;;;;;18.78;74.88;100365.41;5034336;28;20431;-63
2021/09/05 12:31:48;;;;;;;;;;;;;;;18.79;74.99;100358.44;5019603;28;19936;-63
2021/09/05 12:34:40;;;;;;;;;;;;;;;18.80;75.02;100353.16;5033986;28;19928;-64
2021/09/05 12:37:29;;;;;;;;;;;;;;;18.82;74.92;100358.41;5034219;28;19974;-64
2021/09/05 12:40:14;;;;;;;;;;;;;;;18.83;75.11;100357.50;5018837;28;19971;-65
2021/09/05 12:42:58;;;;;;;;;;;;;;;18.86;74.98;100360.06;5018947;28;20300;-63
2021/09/05 12:45:52;;;;;;;;;;;;;;;18.87;75.00;100360.06;5033909;28;20292;-63
2021/09/05 12:48:42;;;;;;;;;;;;;;;18.89;75.00;100356.56;5018986;28;19927;-64
2021/09/05 12:51:26;;;;;;;;;;;;;;;18.92;75.02;100356.53;5018747;28;19932;-63
2021/09/05 12:54:10;;;;;;;;;;;;;;;18.93;75.13;100356.50;5033532;28;19951;-64
2021/09/05 12:56:54;;;;;;;;;;;;;;;18.93;74.94;100352.97;5032767;28;19989;-64
2021/09/05 12:59:38;;;;;;;;;;;;;;;18.95;75.00;100353.84;5018368;28;19928;-64
2021/09/05 13:02:25;;;;;;;;;;;;;;;18.95;75.12;100353.84;5033680;28;20353;-64
2021/09/05 13:05:12;;;;;;;;;;;;;;;18.96;74.99;100360.84;5021202;28;19944;-65
2021/09/05 13:07:57;;;;;;;;;;;;;;;18.97;75.10;100354.72;5037995;28;20018;-64
2021/09/05 13:10:41;;;;;;;;;;;;;;;18.98;75.00;100356.44;5037770;28;19944;-64
2021/09/05 13:13:25;;;;;;;;;;;;;;;18.99;74.99;100350.31;5036668;28;19960;-64
2021/09/05 13:16:09;;;;;;;;;;;;;;;18.99;75.00;100360.81;5036549;28;19986;-64
2021/09/05 13:18:53;;;;;;;;;;;;;;;18.99;74.98;100347.69;5037294;28;19927;-64
2021/09/05 13:21:37;;;;;;;;;;;;;;;19.01;74.86;100351.16;5037922;28;19971;-65
2021/09/05 13:24:27;;;;;;;;;;;;;;;19.01;75.05;100345.91;5022712;28;19952;-63
2021/09/05 13:27:11;;;;;;;;;;;;;;;19.02;74.92;100342.41;5022272;28;19990;-65
2021/09/05 13:29:55;;;;;;;;;;;;;;;19.03;74.93;100349.38;5037870;28;19932;-64
2021/09/05 13:32:45;;;;;;;;;;;;;;;19.05;74.89;100344.97;5037485;28;19928;-63
2021/09/05 13:35:29;;;;;;;;;;;;;;;19.06;74.90;100340.59;5036301;28;19943;-63
2021/09/05 13:38:13;;;;;;;;;;;;;;;19.07;74.83;100331.81;5036666;28;19976;-63
2021/09/05 13:40:57;;;;;;;;;;;;;;;19.06;74.88;100338.84;5037252;28;19932;-64
2021/09/05 13:43:44;;;;;;;;;;;;;;;19.08;74.82;100346.69;5022015;28;19991;-63
2021/09/05 13:46:28;;;;;;;;;;;;;;;19.08;74.64;100338.81;5037291;28;20450;-63
2021/09/05 13:49:12;;;;;;;;;;;;;;;19.06;74.62;100338.84;5037294;28;19927;-63
2021/09/05 13:51:56;;;;;;;;;;;;;;;19.06;74.81;100340.59;5037209;28;19976;-63
2021/09/05 13:54:40;;;;;;;;;;;;;;;19.07;74.63;100331.81;5022157;28;19955;-63
2021/09/05 13:57:24;;;;;;;;;;;;;;;19.07;74.62;100337.06;5036578;28;19927;-63
2021/09/05 14:00:14;;;;;;;;;;;;;;;19.07;74.80;100330.06;5036723;28;19928;-63
2021/09/05 14:02:58;;;;;;;;;;;;;;;19.08;74.76;100329.16;5021377;28;19928;-64
2021/09/05 14:05:50;;;;;;;;;;;;;;;19.08;74.62;100330.94;5036563;28;20020;-63
2021/09/05 14:08:34;;;;;;;;;;;;;;;19.10;74.60;100335.25;5022048;28;20014;-63
2021/09/05 14:11:18;;;;;;;;;;;;;;;19.11;74.53;100328.25;5036354;28;19955;-65
2021/09/05 14:14:05;;;;;;;;;;;;;;;19.11;74.65;100328.25;5036567;28;19951;-63